KMKC/MKC METAR and TAF weather

Enter ICAO airport designator
Station Type Date Time Source
KMKC METAR 2024/06/16 08:54 UTC NOAA

KMKC 160854Z 21005KT 10SM OVC050 26/21 A2981 RMK AO2 SLP084 T02610206 58001


Station Type Date Time Source
KMKC Decoded METAR 2024/06/16 08:54 UTC NOAA

KANSAS CITY DOWNTOWN AIRPORT , MO, United States (KMKC) 39-07N 094-36W 227M
Jun 16, 2024 - 04:54 AM EDT / 2024.06.16 0854 UTC
Wind: from the SSW (210 degrees) at 6 MPH (5 KT):0
Visibility: 10 mile(s):0
Sky conditions: overcast
Temperature: 79.0 F (26.1 C)
Dew Point: 69.1 F (20.6 C)
Relative Humidity: 71%
Pressure (altimeter): 29.81 in. Hg (1009 hPa)
Pressure tendency: 0.00 inches (0.1 hPa) lower than three hours ago
ob: KMKC 160854Z 21005KT 10SM OVC050 26/21 A2981 RMK AO2 SLP084 T02610206 58001
cycle: 9

Station Type Date Time Source
KMKC TAF 2024/06/16 06:22 UTC NOAA